• Join FlightAware (Why Join?)
  • Login
  • US Flag 
10:57AM EDT


 

Airport Tracker/Info


-or-


 

Live Flight TrackerFlight Track Log ✈ SWA2001 ✈ 01-Aug-2013 ✈ KPHX - KABQ

Flight Track Log - Related Links

Times and Time Zones

All times are in EDT time to prevent confusion due to time zone crossing. See the SWA2001 flight status page for this flight to view local times or setup timezone preferences in your user account.

Time Position Orientation Groundspeed Altitude Reporting Facility
EDT Latitude Longitude Course Direction KTS MPH feet Rate Location/Type
01:41AM 33.4500 -111.9000 76° East 234 269 4,300  Level Phoenix TRACON
01:43AM 33.4667 -111.8000 79° East 290 334 7,500 3,180 Climbing Phoenix TRACON
01:44AM 33.5189 -111.6864 61° Northeast 302 348 11,900 3,060 Climbing Albuquerque Center
01:45AM 33.5628 -111.5789 64° Northeast 359 413 14,600 2,760 Climbing Albuquerque Center
01:46AM 33.6094 -111.4647 64° Northeast 384 442 17,500 2,820 Climbing Albuquerque Center
01:47AM 33.6578 -111.3433 64° Northeast 405 466 20,400 2,580 Climbing Albuquerque Center
01:48AM 33.7025 -111.2122 68° East 425 489 22,800 2,220 Climbing Albuquerque Center
01:49AM 33.7447 -111.0753 70° East 439 505 24,900 1,980 Climbing Albuquerque Center
01:50AM 33.7886 -110.9308 70° East 458 527 26,800 1,860 Climbing Albuquerque Center
01:51AM 33.8347 -110.7831 69° East 469 540 28,700 1,800 Climbing Albuquerque Center
01:52AM 33.8803 -110.6333 70° East 476 548 30,500 1,920 Climbing Albuquerque Center
01:53AM 33.9264 -110.4828 70° East 480 552 32,600 1,860 Climbing Albuquerque Center
01:54AM 33.9778 -110.3156 70° East 482 555 34,300 1,140 Climbing Albuquerque Center
01:55AM 34.0233 -110.1625 70° East 484 557 35,000 300 Climbing Albuquerque Center
01:56AM 34.0664 -110.0167 70° East 483 556 35,000  Level Albuquerque Center
01:57AM 34.1197 -109.8522 69° East 476 548 35,000  Level Albuquerque Center
01:58AM 34.1658 -109.7111 68° East 473 544 35,000  Level Albuquerque Center
01:59AM 34.2100 -109.5683 69° East 474 545 35,000  Level Albuquerque Center
02:00AM 34.2578 -109.4206 69° East 471 542 35,000 -120 Level Albuquerque Center
02:01AM 34.3081 -109.2581 69° East 479 551 34,800 -600 Descending Albuquerque Center
02:02AM 34.3536 -109.1144 69° East 481 554 33,800 -1,080 Descending Albuquerque Center
02:03AM 34.4047 -108.9458 70° East 479 551 32,700 -1,080 Descending Albuquerque Center
02:04AM 34.4494 -108.8044 69° East 475 547 31,700 -900 Descending Albuquerque Center
02:05AM 34.4928 -108.6642 69° East 470 541 31,000 -360 Descending Albuquerque Center
02:06AM 34.5431 -108.5017 69° East 465 535 31,000  Level Albuquerque Center
02:07AM 34.5864 -108.3653 69° East 459 528 31,000 -720 Level Albuquerque Center
02:08AM 34.6283 -108.2247 70° East 461 531 29,600 -1,800 Descending Albuquerque Center
02:09AM 34.6675 -108.0939 70° East 448 516 27,400 -2,220 Descending Albuquerque Center
02:10AM 34.7086 -107.9592 70° East 433 498 25,200 -2,220 Descending Albuquerque Center
02:11AM 34.7478 -107.8278 70° East 419 482 23,000 -2,160 Descending Albuquerque Center
02:12AM 34.7853 -107.6997 70° East 407 468 20,900 -2,040 Descending Albuquerque Center
02:13AM 34.8219 -107.5778 70° East 393 452 18,900 -1,920 Descending Albuquerque Center
02:14AM 34.8564 -107.4575 71° East 377 434 17,100 -2,220 Descending Albuquerque Center
02:15AM 34.8978 -107.3153 70° East 372 428 14,400 -2,460 Descending Albuquerque Center
02:16AM 34.9333 -107.1953 70° East 377 434 12,200 -2,040 Descending Albuquerque Center
02:17AM 34.9667 -107.0811 70° East 362 417 10,400 -1,620 Descending Albuquerque Center
02:18AM 34.9956 -106.9817 70° East 316 364 9,000 -1,200 Descending Albuquerque Center
02:19AM 35.0228 -106.8878 70° East 301 346 8,100 -540 Descending Albuquerque Center
02:20AM 35.0447 -106.8086 71° East 265 305 8,000 -540 Descending Albuquerque Center
02:21AM 35.0450 -106.7325 90° East 231 266 7,100 -900 Descending Albuquerque Center
02:22AM 35.0444 -106.6700 91° East 191 220 6,200 -900 Descending Albuquerque Center
02:23AM 35.0439 -106.6214 91° East 149 171 5,400 -840 Descending Albuquerque Center
02:25AM 35.0402 -106.6092 90° East  Level Estimated